sensor_id;sensor_type;location;lat;lon;timestamp;temperature;humidity
54178;DHT22;40085;53.004;6.770;2022-09-09T00:01:11;14.20;99.90
54178;DHT22;40085;53.004;6.770;2022-09-09T00:06:46;14.10;99.90
54178;DHT22;40085;53.004;6.770;2022-09-09T00:09:17;14.10;99.90
54178;DHT22;40085;53.004;6.770;2022-09-09T00:11:47;14.10;99.90
54178;DHT22;40085;53.004;6.770;2022-09-09T00:14:21;14.10;99.90
54178;DHT22;40085;53.004;6.770;2022-09-09T00:16:56;14.10;99.90
54178;DHT22;40085;53.004;6.770;2022-09-09T00:19:49;14.10;99.90
54178;DHT22;40085;53.004;6.770;2022-09-09T00:22:23;14.10;99.90
54178;DHT22;40085;53.004;6.770;2022-09-09T00:24:53;14.10;99.90
54178;DHT22;40085;53.004;6.770;2022-09-09T00:27:47;14.00;99.90
54178;DHT22;40085;53.004;6.770;2022-09-09T00:30:32;14.00;99.90
54178;DHT22;40085;53.004;6.770;2022-09-09T00:33:02;14.00;99.90
54178;DHT22;40085;53.004;6.770;2022-09-09T00:35:44;14.00;99.90
54178;DHT22;40085;53.004;6.770;2022-09-09T00:38:16;14.00;99.90
54178;DHT22;40085;53.004;6.770;2022-09-09T00:41:09;14.00;99.90
54178;DHT22;40085;53.004;6.770;2022-09-09T00:43:39;14.00;99.90
54178;DHT22;40085;53.004;6.770;2022-09-09T00:51:25;14.00;99.90
54178;DHT22;40085;53.004;6.770;2022-09-09T00:54:21;13.90;99.90
54178;DHT22;40085;53.004;6.770;2022-09-09T00:57:27;13.90;99.90
54178;DHT22;40085;53.004;6.770;2022-09-09T01:05:34;13.90;99.90
54178;DHT22;40085;53.004;6.770;2022-09-09T01:08:03;13.90;99.90
54178;DHT22;40085;53.004;6.770;2022-09-09T01:10:51;13.80;99.90
54178;DHT22;40085;53.004;6.770;2022-09-09T01:13:30;13.80;99.90
54178;DHT22;40085;53.004;6.770;2022-09-09T01:15:58;13.80;99.90
54178;DHT22;40085;53.004;6.770;2022-09-09T01:18:29;13.80;99.90
54178;DHT22;40085;53.004;6.770;2022-09-09T01:24:40;13.80;99.90
54178;DHT22;40085;53.004;6.770;2022-09-09T01:27:06;13.80;99.90
54178;DHT22;40085;53.004;6.770;2022-09-09T01:29:33;13.80;99.90
54178;DHT22;40085;53.004;6.770;2022-09-09T01:34:47;13.80;99.90
54178;DHT22;40085;53.004;6.770;2022-09-09T01:37:13;13.80;99.90
54178;DHT22;40085;53.004;6.770;2022-09-09T01:39:41;13.80;99.90
54178;DHT22;40085;53.004;6.770;2022-09-09T01:42:10;13.80;99.90
54178;DHT22;40085;53.004;6.770;2022-09-09T01:44:38;13.80;99.90
54178;DHT22;40085;53.004;6.770;2022-09-09T01:47:04;13.80;99.90
54178;DHT22;40085;53.004;6.770;2022-09-09T01:49:31;13.80;99.90
54178;DHT22;40085;53.004;6.770;2022-09-09T01:51:58;13.90;99.90
54178;DHT22;40085;53.004;6.770;2022-09-09T01:54:27;13.90;99.90
54178;DHT22;40085;53.004;6.770;2022-09-09T02:05:33;14.00;99.90
54178;DHT22;40085;53.004;6.770;2022-09-09T02:08:07;14.00;99.90
54178;DHT22;40085;53.004;6.770;2022-09-09T02:10:42;14.10;99.90
54178;DHT22;40085;53.004;6.770;2022-09-09T02:13:12;14.10;99.90
54178;DHT22;40085;53.004;6.770;2022-09-09T02:18:30;14.10;99.90
54178;DHT22;40085;53.004;6.770;2022-09-09T02:20:59;14.10;99.90
54178;DHT22;40085;53.004;6.770;2022-09-09T02:23:26;14.20;99.90
54178;DHT22;40085;53.004;6.770;2022-09-09T02:25:54;14.10;99.90
54178;DHT22;40085;53.004;6.770;2022-09-09T02:28:22;14.10;99.90
54178;DHT22;40085;53.004;6.770;2022-09-09T02:30:51;14.20;99.90
54178;DHT22;40085;53.004;6.770;2022-09-09T02:33:25;14.20;99.90
54178;DHT22;40085;53.004;6.770;2022-09-09T02:35:53;14.20;99.90
54178;DHT22;40085;53.004;6.770;2022-09-09T02:38:20;14.20;99.90
54178;DHT22;40085;53.004;6.770;2022-09-09T02:40:47;14.20;99.90
54178;DHT22;40085;53.004;6.770;2022-09-09T02:43:14;14.30;99.90
54178;DHT22;40085;53.004;6.770;2022-09-09T02:45:49;14.20;99.90
54178;DHT22;40085;53.004;6.770;2022-09-09T02:48:58;14.20;99.90
54178;DHT22;40085;53.004;6.770;2022-09-09T02:54:23;14.30;99.90
54178;DHT22;40085;53.004;6.770;2022-09-09T02:56:53;14.30;99.90
54178;DHT22;40085;53.004;6.770;2022-09-09T02:59:21;14.20;99.90
54178;DHT22;40085;53.004;6.770;2022-09-09T03:01:47;14.30;99.90
54178;DHT22;40085;53.004;6.770;2022-09-09T03:04:13;14.30;99.90
54178;DHT22;40085;53.004;6.770;2022-09-09T03:06:39;14.30;99.90
54178;DHT22;40085;53.004;6.770;2022-09-09T03:09:05;14.30;99.90
54178;DHT22;40085;53.004;6.770;2022-09-09T03:11:31;14.30;99.90
54178;DHT22;40085;53.004;6.770;2022-09-09T03:13:56;14.30;99.90
54178;DHT22;40085;53.004;6.770;2022-09-09T03:16:23;14.30;99.90
54178;DHT22;40085;53.004;6.770;2022-09-09T03:18:49;14.30;99.90
54178;DHT22;40085;53.004;6.770;2022-09-09T03:21:15;14.30;99.90
54178;DHT22;40085;53.004;6.770;2022-09-09T03:23:40;14.50;99.90
54178;DHT22;40085;53.004;6.770;2022-09-09T03:26:06;14.40;99.90
54178;DHT22;40085;53.004;6.770;2022-09-09T03:28:32;14.30;99.90
54178;DHT22;40085;53.004;6.770;2022-09-09T03:31:05;14.40;99.90
54178;DHT22;40085;53.004;6.770;2022-09-09T03:33:31;14.40;99.90
54178;DHT22;40085;53.004;6.770;2022-09-09T03:35:57;14.40;99.90
54178;DHT22;40085;53.004;6.770;2022-09-09T03:38:26;14.40;99.90
54178;DHT22;40085;53.004;6.770;2022-09-09T03:40:53;14.40;99.90
54178;DHT22;40085;53.004;6.770;2022-09-09T03:43:21;14.40;99.90
54178;DHT22;40085;53.004;6.770;2022-09-09T03:45:47;14.40;99.90
54178;DHT22;40085;53.004;6.770;2022-09-09T03:48:14;14.40;99.90
54178;DHT22;40085;53.004;6.770;2022-09-09T03:50:45;14.40;99.90
54178;DHT22;40085;53.004;6.770;2022-09-09T03:53:11;14.40;99.90
54178;DHT22;40085;53.004;6.770;2022-09-09T03:55:37;14.40;99.90
54178;DHT22;40085;53.004;6.770;2022-09-09T03:58:02;14.40;99.90
54178;DHT22;40085;53.004;6.770;2022-09-09T04:00:28;14.40;99.90
54178;DHT22;40085;53.004;6.770;2022-09-09T04:02:54;14.40;99.90
54178;DHT22;40085;53.004;6.770;2022-09-09T04:05:21;14.30;99.90
54178;DHT22;40085;53.004;6.770;2022-09-09T04:07:46;14.40;99.90
54178;DHT22;40085;53.004;6.770;2022-09-09T04:10:12;14.60;99.90
54178;DHT22;40085;53.004;6.770;2022-09-09T04:12:39;14.30;99.90
54178;DHT22;40085;53.004;6.770;2022-09-09T04:15:05;14.30;99.90
54178;DHT22;40085;53.004;6.770;2022-09-09T04:17:31;14.30;99.90
54178;DHT22;40085;53.004;6.770;2022-09-09T04:19:56;14.30;99.90
54178;DHT22;40085;53.004;6.770;2022-09-09T04:22:22;14.30;99.90
54178;DHT22;40085;53.004;6.770;2022-09-09T04:24:48;14.20;99.90
54178;DHT22;40085;53.004;6.770;2022-09-09T04:27:13;14.30;99.90
54178;DHT22;40085;53.004;6.770;2022-09-09T04:29:39;14.30;99.90
54178;DHT22;40085;53.004;6.770;2022-09-09T04:32:05;14.30;99.90
54178;DHT22;40085;53.004;6.770;2022-09-09T04:34:30;14.30;99.90
54178;DHT22;40085;53.004;6.770;2022-09-09T04:36:56;14.30;99.90
54178;DHT22;40085;53.004;6.770;2022-09-09T04:39:22;14.30;99.90
54178;DHT22;40085;53.004;6.770;2022-09-09T04:41:48;14.30;99.90
54178;DHT22;40085;53.004;6.770;2022-09-09T04:44:14;14.20;99.90
54178;DHT22;40085;53.004;6.770;2022-09-09T04:46:41;14.30;99.90
54178;DHT22;40085;53.004;6.770;2022-09-09T04:49:07;14.30;99.90
54178;DHT22;40085;53.004;6.770;2022-09-09T04:51:32;14.20;99.90
54178;DHT22;40085;53.004;6.770;2022-09-09T04:53:58;14.20;99.90
54178;DHT22;40085;53.004;6.770;2022-09-09T04:56:24;14.20;99.90
54178;DHT22;40085;53.004;6.770;2022-09-09T04:58:52;14.20;99.90
54178;DHT22;40085;53.004;6.770;2022-09-09T05:01:20;14.20;99.90
54178;DHT22;40085;53.004;6.770;2022-09-09T05:03:48;14.20;99.90
54178;DHT22;40085;53.004;6.770;2022-09-09T05:06:19;14.20;99.90
54178;DHT22;40085;53.004;6.770;2022-09-09T05:08:46;14.20;99.90
54178;DHT22;40085;53.004;6.770;2022-09-09T05:11:27;14.10;99.90
54178;DHT22;40085;53.004;6.770;2022-09-09T05:13:53;14.20;99.90
54178;DHT22;40085;53.004;6.770;2022-09-09T05:16:20;14.10;99.90
54178;DHT22;40085;53.004;6.770;2022-09-09T05:18:46;14.10;99.90
54178;DHT22;40085;53.004;6.770;2022-09-09T05:21:14;14.10;99.90
54178;DHT22;40085;53.004;6.770;2022-09-09T05:23:40;14.10;99.90
54178;DHT22;40085;53.004;6.770;2022-09-09T05:26:08;14.10;99.90
54178;DHT22;40085;53.004;6.770;2022-09-09T05:28:35;14.10;99.90
54178;DHT22;40085;53.004;6.770;2022-09-09T05:31:03;14.10;99.90
54178;DHT22;40085;53.004;6.770;2022-09-09T05:33:31;14.10;99.90
54178;DHT22;40085;53.004;6.770;2022-09-09T05:36:10;14.10;99.90
54178;DHT22;40085;53.004;6.770;2022-09-09T05:38:38;14.10;99.90
54178;DHT22;40085;53.004;6.770;2022-09-09T05:41:05;14.10;99.90
54178;DHT22;40085;53.004;6.770;2022-09-09T05:43:31;14.20;99.90
54178;DHT22;40085;53.004;6.770;2022-09-09T05:46:05;14.10;99.90
54178;DHT22;40085;53.004;6.770;2022-09-09T05:48:33;14.20;99.90
54178;DHT22;40085;53.004;6.770;2022-09-09T05:51:00;14.20;99.90
54178;DHT22;40085;53.004;6.770;2022-09-09T05:53:27;14.20;99.90
54178;DHT22;40085;53.004;6.770;2022-09-09T05:56:00;14.10;99.90
54178;DHT22;40085;53.004;6.770;2022-09-09T05:58:27;14.20;99.90
54178;DHT22;40085;53.004;6.770;2022-09-09T06:00:53;14.20;99.90
54178;DHT22;40085;53.004;6.770;2022-09-09T06:03:25;14.20;99.90
54178;DHT22;40085;53.004;6.770;2022-09-09T06:06:00;14.20;99.90
54178;DHT22;40085;53.004;6.770;2022-09-09T06:08:26;14.50;99.90
54178;DHT22;40085;53.004;6.770;2022-09-09T06:10:53;14.30;99.90
54178;DHT22;40085;53.004;6.770;2022-09-09T06:13:18;14.30;99.90
54178;DHT22;40085;53.004;6.770;2022-09-09T06:15:51;14.30;99.90
54178;DHT22;40085;53.004;6.770;2022-09-09T06:18:18;14.30;99.90
54178;DHT22;40085;53.004;6.770;2022-09-09T06:21:01;14.30;99.90
54178;DHT22;40085;53.004;6.770;2022-09-09T06:23:29;14.40;99.90
54178;DHT22;40085;53.004;6.770;2022-09-09T06:26:09;14.40;99.90
54178;DHT22;40085;53.004;6.770;2022-09-09T06:28:36;14.40;99.90
54178;DHT22;40085;53.004;6.770;2022-09-09T06:31:04;14.50;99.90
54178;DHT22;40085;53.004;6.770;2022-09-09T06:33:32;14.50;99.90
54178;DHT22;40085;53.004;6.770;2022-09-09T06:36:00;14.60;99.90
54178;DHT22;40085;53.004;6.770;2022-09-09T06:38:26;14.60;99.90
54178;DHT22;40085;53.004;6.770;2022-09-09T06:40:58;14.60;99.90
54178;DHT22;40085;53.004;6.770;2022-09-09T06:43:24;14.70;99.90
54178;DHT22;40085;53.004;6.770;2022-09-09T06:46:01;14.70;99.90
54178;DHT22;40085;53.004;6.770;2022-09-09T06:48:28;14.80;99.90
54178;DHT22;40085;53.004;6.770;2022-09-09T06:51:09;14.80;99.90
54178;DHT22;40085;53.004;6.770;2022-09-09T06:53:37;14.80;99.90
54178;DHT22;40085;53.004;6.770;2022-09-09T06:58:41;14.80;99.90
54178;DHT22;40085;53.004;6.770;2022-09-09T07:01:15;14.90;99.90
54178;DHT22;40085;53.004;6.770;2022-09-09T07:03:42;14.90;99.90
54178;DHT22;40085;53.004;6.770;2022-09-09T07:06:09;14.90;99.90
54178;DHT22;40085;53.004;6.770;2022-09-09T07:08:39;15.00;99.90
54178;DHT22;40085;53.004;6.770;2022-09-09T07:11:07;15.00;99.90
54178;DHT22;40085;53.004;6.770;2022-09-09T07:13:34;15.10;99.90
54178;DHT22;40085;53.004;6.770;2022-09-09T07:16:19;15.10;99.90
54178;DHT22;40085;53.004;6.770;2022-09-09T07:18:46;15.20;99.90
54178;DHT22;40085;53.004;6.770;2022-09-09T07:21:14;15.20;99.90
54178;DHT22;40085;53.004;6.770;2022-09-09T07:23:41;15.30;99.90
54178;DHT22;40085;53.004;6.770;2022-09-09T07:26:11;15.40;99.90
54178;DHT22;40085;53.004;6.770;2022-09-09T07:28:38;15.40;99.90
54178;DHT22;40085;53.004;6.770;2022-09-09T07:31:04;15.50;99.90
54178;DHT22;40085;53.004;6.770;2022-09-09T07:33:33;15.40;99.90
54178;DHT22;40085;53.004;6.770;2022-09-09T07:36:08;15.40;99.90
54178;DHT22;40085;53.004;6.770;2022-09-09T07:38:39;15.50;99.90
54178;DHT22;40085;53.004;6.770;2022-09-09T07:41:07;15.50;99.90
54178;DHT22;40085;53.004;6.770;2022-09-09T07:43:40;15.50;99.90
54178;DHT22;40085;53.004;6.770;2022-09-09T07:46:06;15.60;99.90
54178;DHT22;40085;53.004;6.770;2022-09-09T07:48:32;15.60;99.90
54178;DHT22;40085;53.004;6.770;2022-09-09T07:51:07;15.70;99.90
54178;DHT22;40085;53.004;6.770;2022-09-09T07:53:33;15.70;99.90
54178;DHT22;40085;53.004;6.770;2022-09-09T07:56:06;15.70;99.90
54178;DHT22;40085;53.004;6.770;2022-09-09T07:58:32;15.70;99.90
54178;DHT22;40085;53.004;6.770;2022-09-09T08:00:57;15.80;99.90
54178;DHT22;40085;53.004;6.770;2022-09-09T08:03:23;15.80;99.90
54178;DHT22;40085;53.004;6.770;2022-09-09T08:05:49;15.90;99.90
54178;DHT22;40085;53.004;6.770;2022-09-09T08:08:15;15.90;99.90
54178;DHT22;40085;53.004;6.770;2022-09-09T08:10:42;15.90;99.90
54178;DHT22;40085;53.004;6.770;2022-09-09T08:13:08;15.90;99.90
54178;DHT22;40085;53.004;6.770;2022-09-09T08:15:34;16.00;99.90
54178;DHT22;40085;53.004;6.770;2022-09-09T08:18:00;16.20;99.90
54178;DHT22;40085;53.004;6.770;2022-09-09T08:20:25;16.40;99.90
54178;DHT22;40085;53.004;6.770;2022-09-09T08:22:51;16.60;99.90
54178;DHT22;40085;53.004;6.770;2022-09-09T08:25:17;16.70;99.90
54178;DHT22;40085;53.004;6.770;2022-09-09T08:27:42;16.80;99.90
54178;DHT22;40085;53.004;6.770;2022-09-09T08:30:09;17.00;99.90
54178;DHT22;40085;53.004;6.770;2022-09-09T08:32:34;16.80;99.90
54178;DHT22;40085;53.004;6.770;2022-09-09T08:35:00;16.90;99.90
54178;DHT22;40085;53.004;6.770;2022-09-09T08:37:26;17.00;99.90
54178;DHT22;40085;53.004;6.770;2022-09-09T08:39:52;17.30;99.90
54178;DHT22;40085;53.004;6.770;2022-09-09T08:42:40;17.10;99.90
54178;DHT22;40085;53.004;6.770;2022-09-09T08:45:19;17.30;99.90
54178;DHT22;40085;53.004;6.770;2022-09-09T08:50:39;17.30;99.90
54178;DHT22;40085;53.004;6.770;2022-09-09T08:53:11;17.40;99.90
54178;DHT22;40085;53.004;6.770;2022-09-09T08:55:50;17.40;99.90
54178;DHT22;40085;53.004;6.770;2022-09-09T08:58:25;17.50;99.90
54178;DHT22;40085;53.004;6.770;2022-09-09T09:11:41;17.70;99.90
54178;DHT22;40085;53.004;6.770;2022-09-09T09:14:18;17.80;99.90
54178;DHT22;40085;53.004;6.770;2022-09-09T09:17:14;17.90;99.90
54178;DHT22;40085;53.004;6.770;2022-09-09T09:19:41;18.00;99.90
54178;DHT22;40085;53.004;6.770;2022-09-09T09:27:59;18.00;99.90
54178;DHT22;40085;53.004;6.770;2022-09-09T09:30:44;18.00;99.90
54178;DHT22;40085;53.004;6.770;2022-09-09T09:35:52;18.10;99.90
54178;DHT22;40085;53.004;6.770;2022-09-09T09:38:24;18.20;99.90
54178;DHT22;40085;53.004;6.770;2022-09-09T09:40:55;18.20;99.90
54178;DHT22;40085;53.004;6.770;2022-09-09T09:43:31;18.20;99.90
54178;DHT22;40085;53.004;6.770;2022-09-09T09:45:58;18.20;99.90
54178;DHT22;40085;53.004;6.770;2022-09-09T09:48:25;18.20;99.90
54178;DHT22;40085;53.004;6.770;2022-09-09T09:50:52;18.20;99.90
54178;DHT22;40085;53.004;6.770;2022-09-09T09:53:22;18.20;99.90
54178;DHT22;40085;53.004;6.770;2022-09-09T09:56:01;18.30;99.90
54178;DHT22;40085;53.004;6.770;2022-09-09T09:58:30;18.30;99.90
54178;DHT22;40085;53.004;6.770;2022-09-09T10:01:00;18.40;99.90
54178;DHT22;40085;53.004;6.770;2022-09-09T10:03:31;18.40;99.90
54178;DHT22;40085;53.004;6.770;2022-09-09T10:05:57;18.30;99.90
54178;DHT22;40085;53.004;6.770;2022-09-09T10:08:27;18.10;99.90
54178;DHT22;40085;53.004;6.770;2022-09-09T10:19:05;18.40;99.90
54178;DHT22;40085;53.004;6.770;2022-09-09T10:30:19;18.40;99.90
54178;DHT22;40085;53.004;6.770;2022-09-09T10:38:30;18.90;99.90
54178;DHT22;40085;53.004;6.770;2022-09-09T10:43:42;18.70;99.90
54178;DHT22;40085;53.004;6.770;2022-09-09T10:46:45;18.90;99.90
54178;DHT22;40085;53.004;6.770;2022-09-09T10:55:43;18.60;99.90
54178;DHT22;40085;53.004;6.770;2022-09-09T10:58:24;18.60;99.90
54178;DHT22;40085;53.004;6.770;2022-09-09T11:00:56;18.50;99.90
54178;DHT22;40085;53.004;6.770;2022-09-09T11:03:28;18.80;99.90
54178;DHT22;40085;53.004;6.770;2022-09-09T11:06:16;19.00;99.90
54178;DHT22;40085;53.004;6.770;2022-09-09T11:08:42;19.20;99.90
54178;DHT22;40085;53.004;6.770;2022-09-09T11:21:46;19.40;99.60
54178;DHT22;40085;53.004;6.770;2022-09-09T11:27:15;19.50;98.80
54178;DHT22;40085;53.004;6.770;2022-09-09T11:30:18;19.40;98.00
54178;DHT22;40085;53.004;6.770;2022-09-09T11:41:06;20.00;86.00
54178;DHT22;40085;53.004;6.770;2022-09-09T11:46:08;19.80;94.20
54178;DHT22;40085;53.004;6.770;2022-09-09T11:48:43;19.60;93.20
54178;DHT22;40085;53.004;6.770;2022-09-09T11:51:13;19.60;92.70
54178;DHT22;40085;53.004;6.770;2022-09-09T11:53:56;19.60;95.70
54178;DHT22;40085;53.004;6.770;2022-09-09T11:56:30;19.90;96.40
54178;DHT22;40085;53.004;6.770;2022-09-09T11:59:18;20.30;95.40
54178;DHT22;40085;53.004;6.770;2022-09-09T12:01:48;20.30;92.90
54178;DHT22;40085;53.004;6.770;2022-09-09T12:04:47;20.30;86.00
54178;DHT22;40085;53.004;6.770;2022-09-09T12:07:28;20.30;82.70
54178;DHT22;40085;53.004;6.770;2022-09-09T12:12:44;20.20;86.20
54178;DHT22;40085;53.004;6.770;2022-09-09T12:17:47;20.20;89.70
54178;DHT22;40085;53.004;6.770;2022-09-09T12:25:26;20.00;91.00
54178;DHT22;40085;53.004;6.770;2022-09-09T12:30:29;20.10;92.30
54178;DHT22;40085;53.004;6.770;2022-09-09T12:33:10;20.20;91.00
54178;DHT22;40085;53.004;6.770;2022-09-09T12:35:38;20.20;81.40
54178;DHT22;40085;53.004;6.770;2022-09-09T12:38:06;20.40;92.10
54178;DHT22;40085;53.004;6.770;2022-09-09T12:40:37;20.40;91.80
54178;DHT22;40085;53.004;6.770;2022-09-09T12:43:21;20.40;85.40
54178;DHT22;40085;53.004;6.770;2022-09-09T12:45:49;20.40;79.60
54178;DHT22;40085;53.004;6.770;2022-09-09T12:48:27;20.40;78.20
54178;DHT22;40085;53.004;6.770;2022-09-09T12:50:53;20.40;83.10
54178;DHT22;40085;53.004;6.770;2022-09-09T12:53:31;20.40;79.30
54178;DHT22;40085;53.004;6.770;2022-09-09T12:56:06;20.30;78.10
54178;DHT22;40085;53.004;6.770;2022-09-09T12:58:38;20.40;78.60
54178;DHT22;40085;53.004;6.770;2022-09-09T13:01:06;20.30;79.10
54178;DHT22;40085;53.004;6.770;2022-09-09T13:03:44;20.40;84.30
54178;DHT22;40085;53.004;6.770;2022-09-09T13:06:13;20.50;81.80
54178;DHT22;40085;53.004;6.770;2022-09-09T13:08:43;20.40;74.20
54178;DHT22;40085;53.004;6.770;2022-09-09T13:11:20;20.40;77.50
54178;DHT22;40085;53.004;6.770;2022-09-09T13:13:53;20.40;80.80
54178;DHT22;40085;53.004;6.770;2022-09-09T13:16:30;20.30;79.60
54178;DHT22;40085;53.004;6.770;2022-09-09T13:18:59;20.20;77.50
54178;DHT22;40085;53.004;6.770;2022-09-09T13:21:38;20.00;76.10
54178;DHT22;40085;53.004;6.770;2022-09-09T13:24:06;20.00;82.50
54178;DHT22;40085;53.004;6.770;2022-09-09T13:26:55;19.80;82.30
54178;DHT22;40085;53.004;6.770;2022-09-09T13:29:22;19.80;82.20
54178;DHT22;40085;53.004;6.770;2022-09-09T13:31:48;19.70;81.00
54178;DHT22;40085;53.004;6.770;2022-09-09T13:34:34;19.50;87.90
54178;DHT22;40085;53.004;6.770;2022-09-09T13:37:06;19.50;91.30
54178;DHT22;40085;53.004;6.770;2022-09-09T13:39:36;19.40;91.50
54178;DHT22;40085;53.004;6.770;2022-09-09T13:42:03;19.30;93.10
54178;DHT22;40085;53.004;6.770;2022-09-09T13:44:31;19.20;90.60
54178;DHT22;40085;53.004;6.770;2022-09-09T13:47:15;19.20;91.50
54178;DHT22;40085;53.004;6.770;2022-09-09T13:49:42;19.20;91.70
54178;DHT22;40085;53.004;6.770;2022-09-09T13:52:18;19.30;91.60
54178;DHT22;40085;53.004;6.770;2022-09-09T13:54:48;19.50;90.00
54178;DHT22;40085;53.004;6.770;2022-09-09T13:57:17;19.60;90.40
54178;DHT22;40085;53.004;6.770;2022-09-09T13:59:47;19.90;88.20
54178;DHT22;40085;53.004;6.770;2022-09-09T14:02:13;20.10;90.20
54178;DHT22;40085;53.004;6.770;2022-09-09T14:04:39;20.20;86.40
54178;DHT22;40085;53.004;6.770;2022-09-09T14:07:13;20.30;80.10
54178;DHT22;40085;53.004;6.770;2022-09-09T14:09:40;20.20;83.10
54178;DHT22;40085;53.004;6.770;2022-09-09T14:12:12;20.20;86.00
54178;DHT22;40085;53.004;6.770;2022-09-09T14:14:38;20.20;83.70
54178;DHT22;40085;53.004;6.770;2022-09-09T14:17:04;20.10;84.70
54178;DHT22;40085;53.004;6.770;2022-09-09T14:19:30;20.00;77.80
54178;DHT22;40085;53.004;6.770;2022-09-09T14:21:57;20.00;80.00
54178;DHT22;40085;53.004;6.770;2022-09-09T14:24:23;20.20;85.00
54178;DHT22;40085;53.004;6.770;2022-09-09T14:26:50;20.30;86.10
54178;DHT22;40085;53.004;6.770;2022-09-09T14:29:16;20.40;84.40
54178;DHT22;40085;53.004;6.770;2022-09-09T14:31:42;20.50;81.50
54178;DHT22;40085;53.004;6.770;2022-09-09T14:34:07;20.50;73.60
54178;DHT22;40085;53.004;6.770;2022-09-09T14:36:35;20.50;79.40
54178;DHT22;40085;53.004;6.770;2022-09-09T14:39:01;20.40;73.90
54178;DHT22;40085;53.004;6.770;2022-09-09T14:41:26;20.40;70.80
54178;DHT22;40085;53.004;6.770;2022-09-09T14:43:52;20.40;78.60
54178;DHT22;40085;53.004;6.770;2022-09-09T14:46:20;20.40;73.60
54178;DHT22;40085;53.004;6.770;2022-09-09T14:48:46;20.20;68.80
54178;DHT22;40085;53.004;6.770;2022-09-09T14:51:17;20.10;75.20
54178;DHT22;40085;53.004;6.770;2022-09-09T14:53:45;19.90;76.70
54178;DHT22;40085;53.004;6.770;2022-09-09T14:56:13;19.80;84.80
54178;DHT22;40085;53.004;6.770;2022-09-09T14:58:39;19.70;86.20
54178;DHT22;40085;53.004;6.770;2022-09-09T15:01:08;19.50;88.50
54178;DHT22;40085;53.004;6.770;2022-09-09T15:03:36;19.30;91.90
54178;DHT22;40085;53.004;6.770;2022-09-09T15:06:09;19.40;92.90
54178;DHT22;40085;53.004;6.770;2022-09-09T15:08:36;19.70;93.30
54178;DHT22;40085;53.004;6.770;2022-09-09T15:11:03;19.90;92.00
54178;DHT22;40085;53.004;6.770;2022-09-09T15:13:29;20.00;91.30
54178;DHT22;40085;53.004;6.770;2022-09-09T15:15:55;20.00;91.20
54178;DHT22;40085;53.004;6.770;2022-09-09T15:18:22;19.90;90.00
54178;DHT22;40085;53.004;6.770;2022-09-09T15:20:48;19.80;90.60
54178;DHT22;40085;53.004;6.770;2022-09-09T15:23:14;19.90;91.30
54178;DHT22;40085;53.004;6.770;2022-09-09T15:25:55;19.90;90.90
54178;DHT22;40085;53.004;6.770;2022-09-09T15:28:22;19.80;91.00
54178;DHT22;40085;53.004;6.770;2022-09-09T15:30:52;19.80;91.60
54178;DHT22;40085;53.004;6.770;2022-09-09T15:33:19;19.50;92.10
54178;DHT22;40085;53.004;6.770;2022-09-09T15:35:45;19.40;92.50
54178;DHT22;40085;53.004;6.770;2022-09-09T15:38:11;19.40;93.40
54178;DHT22;40085;53.004;6.770;2022-09-09T15:40:39;19.40;93.60
54178;DHT22;40085;53.004;6.770;2022-09-09T15:43:06;19.30;94.60
54178;DHT22;40085;53.004;6.770;2022-09-09T15:45:33;19.30;94.80
54178;DHT22;40085;53.004;6.770;2022-09-09T15:48:03;19.20;94.10
54178;DHT22;40085;53.004;6.770;2022-09-09T15:50:29;19.20;94.50
54178;DHT22;40085;53.004;6.770;2022-09-09T15:53:01;19.20;95.10
54178;DHT22;40085;53.004;6.770;2022-09-09T15:55:27;19.10;95.00
54178;DHT22;40085;53.004;6.770;2022-09-09T15:57:54;19.00;95.40
54178;DHT22;40085;53.004;6.770;2022-09-09T16:00:20;19.00;95.00
54178;DHT22;40085;53.004;6.770;2022-09-09T16:02:47;18.90;95.20
54178;DHT22;40085;53.004;6.770;2022-09-09T16:05:13;18.80;95.10
54178;DHT22;40085;53.004;6.770;2022-09-09T16:07:38;18.80;95.00
54178;DHT22;40085;53.004;6.770;2022-09-09T16:10:05;18.60;95.50
54178;DHT22;40085;53.004;6.770;2022-09-09T16:12:31;18.50;95.90
54178;DHT22;40085;53.004;6.770;2022-09-09T16:14:57;18.50;96.30
54178;DHT22;40085;53.004;6.770;2022-09-09T16:17:22;18.40;96.20
54178;DHT22;40085;53.004;6.770;2022-09-09T16:19:48;18.30;97.00
54178;DHT22;40085;53.004;6.770;2022-09-09T16:22:13;18.20;97.10
54178;DHT22;40085;53.004;6.770;2022-09-09T16:24:41;18.20;97.90
54178;DHT22;40085;53.004;6.770;2022-09-09T16:27:07;18.10;98.10
54178;DHT22;40085;53.004;6.770;2022-09-09T16:29:33;18.10;97.70
54178;DHT22;40085;53.004;6.770;2022-09-09T16:31:59;18.10;98.70
54178;DHT22;40085;53.004;6.770;2022-09-09T16:34:25;18.10;98.80
54178;DHT22;40085;53.004;6.770;2022-09-09T16:36:51;18.10;98.80
54178;DHT22;40085;53.004;6.770;2022-09-09T16:39:18;18.00;98.80
54178;DHT22;40085;53.004;6.770;2022-09-09T16:41:46;18.00;99.20
54178;DHT22;40085;53.004;6.770;2022-09-09T16:44:14;17.90;99.40
54178;DHT22;40085;53.004;6.770;2022-09-09T16:46:43;17.90;99.40
54178;DHT22;40085;53.004;6.770;2022-09-09T16:49:11;17.90;99.80
54178;DHT22;40085;53.004;6.770;2022-09-09T16:51:39;17.90;99.80
54178;DHT22;40085;53.004;6.770;2022-09-09T16:54:07;17.90;99.90
54178;DHT22;40085;53.004;6.770;2022-09-09T16:56:34;17.90;99.90
54178;DHT22;40085;53.004;6.770;2022-09-09T16:59:07;17.90;99.90
54178;DHT22;40085;53.004;6.770;2022-09-09T17:01:36;17.90;99.90
54178;DHT22;40085;53.004;6.770;2022-09-09T17:04:08;18.00;99.90
54178;DHT22;40085;53.004;6.770;2022-09-09T17:06:34;18.00;99.90
54178;DHT22;40085;53.004;6.770;2022-09-09T17:09:12;18.00;99.90
54178;DHT22;40085;53.004;6.770;2022-09-09T17:11:39;18.00;99.90
54178;DHT22;40085;53.004;6.770;2022-09-09T17:14:06;18.00;99.60
54178;DHT22;40085;53.004;6.770;2022-09-09T17:16:33;18.10;99.60
54178;DHT22;40085;53.004;6.770;2022-09-09T17:19:03;18.00;99.70
54178;DHT22;40085;53.004;6.770;2022-09-09T17:21:30;18.10;99.80
54178;DHT22;40085;53.004;6.770;2022-09-09T17:23:56;18.00;99.90
54178;DHT22;40085;53.004;6.770;2022-09-09T17:26:25;18.00;99.60
54178;DHT22;40085;53.004;6.770;2022-09-09T17:28:52;18.00;99.90
54178;DHT22;40085;53.004;6.770;2022-09-09T17:31:21;17.90;99.90
54178;DHT22;40085;53.004;6.770;2022-09-09T17:33:48;17.90;99.90
54178;DHT22;40085;53.004;6.770;2022-09-09T17:36:23;17.90;99.90
54178;DHT22;40085;53.004;6.770;2022-09-09T17:38:49;17.80;99.90
54178;DHT22;40085;53.004;6.770;2022-09-09T17:41:35;17.80;99.90
54178;DHT22;40085;53.004;6.770;2022-09-09T17:44:01;17.70;99.90
54178;DHT22;40085;53.004;6.770;2022-09-09T17:46:30;17.70;99.90
54178;DHT22;40085;53.004;6.770;2022-09-09T17:49:00;17.60;99.90
54178;DHT22;40085;53.004;6.770;2022-09-09T17:51:27;17.60;99.90
54178;DHT22;40085;53.004;6.770;2022-09-09T17:53:57;17.60;99.90
54178;DHT22;40085;53.004;6.770;2022-09-09T17:56:25;17.60;99.90